Time;durP1;ratioP1;P1;durP2;ratioP2;P2;SDS_P1;SDS_P2;PMS_P1;PMS_P2;Temp;Humidity;BMP_temperature;BMP_pressure;BME280_temperature;BME280_humidity;BME280_pressure;Samples;Min_cycle;Max_cycle;Signal;HPM_P1;HPM_P2
2021/12/23 00:02:13;;;;;;;19.93;18.13;;;;;;;22.75;23.35;95887.88;4945759;28;102846;-47
2021/12/23 00:04:39;;;;;;;22.80;20.70;;;;;;;22.75;23.81;95889.75;4951401;28;102795;-47
2021/12/23 00:07:04;;;;;;;21.20;19.30;;;;;;;22.74;23.58;95888.19;4952269;28;102706;-47
2021/12/23 00:10:04;;;;;;;22.63;20.57;;;;;;;22.74;23.29;95886.31;4951590;28;102812;-47
2021/12/23 00:12:29;;;;;;;22.13;20.17;;;;;;;22.74;23.68;95894.28;4954406;28;103279;-47
2021/12/23 00:14:55;;;;;;;21.07;19.27;;;;;;;22.74;23.33;95885.50;4951470;28;104610;-47
2021/12/23 00:25:20;;;;;;;19.90;18.20;;;;;;;22.72;23.42;95896.44;4944638;28;102778;-47
2021/12/23 00:27:46;;;;;;;20.43;18.63;;;;;;;22.72;23.21;95893.78;4952194;28;102568;-47
2021/12/23 00:30:12;;;;;;;20.40;18.60;;;;;;;22.73;23.33;95902.56;4946440;28;102868;-47
2021/12/23 00:32:37;;;;;;;19.80;18.10;;;;;;;22.72;23.25;95899.13;4953507;28;103381;-47
2021/12/23 00:35:07;;;;;;;20.60;18.80;;;;;;;22.71;23.24;95896.72;4956517;28;103086;-47
2021/12/23 00:37:38;;;;;;;20.30;18.60;;;;;;;22.71;22.90;95905.53;4957125;28;102919;-47
2021/12/23 00:40:05;;;;;;;20.47;18.77;;;;;;;22.71;23.17;95910.06;4951477;28;103300;-46
2021/12/23 00:42:33;;;;;;;21.70;19.70;;;;;;;22.71;22.70;95910.84;4952070;28;102840;-47
2021/12/23 00:44:58;;;;;;;20.93;19.10;;;;;;;22.70;22.83;95908.47;4954551;28;103958;-47
2021/12/23 00:47:24;;;;;;;21.37;19.47;;;;;;;22.70;23.16;95909.25;4957365;28;103751;-47
2021/12/23 00:49:49;;;;;;;21.53;19.63;;;;;;;22.71;22.99;95918.03;4949672;28;103302;-47
2021/12/23 00:52:18;;;;;;;22.07;20.20;;;;;;;22.70;23.34;95901.28;4952286;28;103353;-47
2021/12/23 00:54:44;;;;;;;23.10;21.00;;;;;;;22.69;22.99;95907.69;4947934;28;102849;-46
2021/12/23 00:57:09;;;;;;;22.40;20.50;;;;;;;22.70;22.31;95897.81;4946619;28;102831;-46
2021/12/23 00:59:37;;;;;;;22.30;20.40;;;;;;;22.70;22.78;95903.13;4954358;28;102818;-46
2021/12/23 01:02:07;;;;;;;21.83;20.00;;;;;;;22.69;22.79;95893.56;4953262;28;103385;-48
2021/12/23 01:04:33;;;;;;;23.30;21.17;;;;;;;22.68;23.35;95887.44;4945215;28;102779;-47
2021/12/23 01:06:59;;;;;;;22.33;20.50;;;;;;;22.68;23.36;95892.78;4952052;28;104542;-46
2021/12/23 01:09:24;;;;;;;22.67;20.67;;;;;;;22.68;22.39;95887.44;4946920;28;103038;-47
2021/12/23 01:11:51;;;;;;;22.17;20.27;;;;;;;22.66;23.10;95883.44;4946846;28;103201;-46
2021/12/23 01:16:49;;;;;;;23.73;21.73;;;;;;;22.67;22.80;95885.03;4944309;28;104316;-46
2021/12/23 01:19:17;;;;;;;24.07;21.80;;;;;;;22.66;22.88;95881.56;4956066;28;102788;-46
2021/12/23 01:21:42;;;;;;;23.33;21.20;;;;;;;22.66;22.64;95883.44;4958777;28;103370;-47
2021/12/23 01:24:10;;;;;;;24.40;22.30;;;;;;;22.65;22.80;95881.88;4953689;28;103336;-47
2021/12/23 01:26:35;;;;;;;23.10;21.00;;;;;;;22.65;23.04;95880.00;4958296;28;102741;-47
2021/12/23 01:29:01;;;;;;;24.23;22.07;;;;;;;22.66;22.99;95883.44;4958006;28;102705;-47
2021/12/23 01:31:30;;;;;;;22.57;20.67;;;;;;;22.65;22.79;95877.31;4955142;28;103249;-47
2021/12/23 01:33:56;;;;;;;22.97;20.97;;;;;;;22.66;22.41;95878.13;4958399;28;103240;-47
2021/12/23 01:36:22;;;;;;;25.00;22.77;;;;;;;22.65;22.72;95872.00;4933421;28;103730;-47
2021/12/23 01:38:48;;;;;;;24.20;22.10;;;;;;;22.65;22.72;95871.22;4951233;28;102717;-47
2021/12/23 01:41:14;;;;;;;23.23;21.13;;;;;;;22.65;22.77;95879.19;4957277;28;104307;-47
2021/12/23 01:43:40;;;;;;;25.20;22.90;;;;;;;22.65;22.65;95872.00;4956088;28;103346;-47
2021/12/23 01:46:06;;;;;;;22.97;20.97;;;;;;;22.66;23.00;95875.47;4955313;28;103065;-47
2021/12/23 01:48:32;;;;;;;23.30;21.30;;;;;;;22.65;22.94;95865.88;4957337;28;102689;-47
2021/12/23 01:50:57;;;;;;;23.50;21.40;;;;;;;22.64;22.68;95865.09;4950370;28;103943;-47
2021/12/23 01:53:23;;;;;;;23.57;21.47;;;;;;;22.64;22.66;95864.28;4957060;28;103132;-47
2021/12/23 01:55:48;;;;;;;23.63;21.57;;;;;;;22.64;22.91;95862.41;4955266;28;103377;-47
2021/12/23 01:58:15;;;;;;;24.50;22.30;;;;;;;22.61;23.10;95859.53;4955511;28;103015;-47
2021/12/23 02:00:46;;;;;;;22.93;20.93;;;;;;;22.56;23.20;95857.72;4946283;28;104126;-47
2021/12/23 02:03:13;;;;;;;23.30;21.07;;;;;;;22.55;23.14;95866.00;4954975;28;102723;-47
2021/12/23 02:05:39;;;;;;;21.73;19.83;;;;;;;22.56;23.35;95862.25;4952694;28;102874;-47
2021/12/23 02:08:05;;;;;;;23.57;21.57;;;;;;;22.51;23.16;95871.91;4952758;28;103012;-47
2021/12/23 02:10:31;;;;;;;22.90;20.90;;;;;;;22.52;23.33;95868.16;4951084;28;103249;-47
2021/12/23 02:12:57;;;;;;;23.80;21.70;;;;;;;22.50;23.32;95870.28;4956713;28;103248;-47
2021/12/23 02:15:23;;;;;;;22.10;20.20;;;;;;;22.50;22.95;95874.81;4957606;28;102757;-47
2021/12/23 02:17:50;;;;;;;22.27;20.17;;;;;;;22.50;23.40;95880.13;4953773;28;103148;-46
2021/12/23 02:20:21;;;;;;;23.20;21.10;;;;;;;22.48;23.04;95880.41;4947285;28;103278;-47
2021/12/23 02:22:49;;;;;;;22.13;20.23;;;;;;;22.48;23.18;95877.75;4957993;28;102545;-47
2021/12/23 02:25:16;;;;;;;21.40;19.50;;;;;;;22.47;22.97;95873.50;4937380;28;103917;-46
2021/12/23 02:27:45;;;;;;;22.87;21.00;;;;;;;22.46;23.35;95866.59;4957767;28;102884;-47
2021/12/23 02:30:16;;;;;;;23.20;21.10;;;;;;;22.45;23.26;95882.84;4954539;28;103439;-47
2021/12/23 02:32:42;;;;;;;22.93;20.93;;;;;;;22.46;23.05;95863.94;4949419;28;102865;-47
2021/12/23 02:35:12;;;;;;;22.13;20.17;;;;;;;22.45;22.87;95878.31;4951814;28;103893;-47
2021/12/23 02:37:39;;;;;;;24.43;22.33;;;;;;;22.46;23.21;95873.78;4954306;28;102967;-47
2021/12/23 02:40:06;;;;;;;22.10;20.20;;;;;;;22.44;23.41;95868.75;4953467;28;102886;-46
2021/12/23 02:42:32;;;;;;;21.80;20.00;;;;;;;22.44;23.08;95875.94;4957176;28;103277;-46
2021/12/23 02:44:58;;;;;;;22.50;20.50;;;;;;;22.43;22.66;95880.47;4956308;28;102884;-46
2021/12/23 02:47:24;;;;;;;20.40;18.70;;;;;;;22.43;23.09;95877.03;4954648;28;102886;-47
2021/12/23 02:49:49;;;;;;;20.47;18.70;;;;;;;22.42;23.23;95873.56;4951185;28;102789;-47
2021/12/23 02:52:15;;;;;;;22.17;20.27;;;;;;;22.39;22.59;95871.47;4954247;28;103444;-47
2021/12/23 02:54:41;;;;;;;20.60;18.80;;;;;;;22.41;23.00;95879.16;4950984;28;102940;-47
2021/12/23 02:57:07;;;;;;;20.87;19.17;;;;;;;22.40;22.59;95883.69;4958469;28;102926;-47
2021/12/23 02:59:32;;;;;;;21.10;19.20;;;;;;;22.41;23.02;95873.84;4952887;28;103214;-47
2021/12/23 03:02:00;;;;;;;22.80;20.90;;;;;;;22.41;22.79;95876.50;4945837;28;102775;-46
2021/12/23 03:04:25;;;;;;;20.20;18.50;;;;;;;22.39;22.90;95868.81;4936027;28;102870;-46
2021/12/23 03:06:56;;;;;;;21.77;19.87;;;;;;;22.39;22.84;95863.47;4943411;28;102815;-48
2021/12/23 03:09:21;;;;;;;21.17;19.37;;;;;;;22.39;22.82;95852.84;4954333;28;103477;-46
2021/12/23 03:11:47;;;;;;;21.00;19.27;;;;;;;22.39;23.02;95852.84;4945587;28;103307;-47
2021/12/23 03:14:14;;;;;;;23.13;21.23;;;;;;;22.38;22.57;95861.91;4949702;28;103229;-46
2021/12/23 03:16:40;;;;;;;21.63;19.80;;;;;;;22.38;22.69;95851.25;4955857;28;102959;-46
2021/12/23 03:19:07;;;;;;;22.67;20.80;;;;;;;22.39;22.71;95852.03;4956462;28;103302;-46
2021/12/23 03:21:34;;;;;;;21.87;20.00;;;;;;;22.38;22.66;95839.81;4952121;28;102756;-47
2021/12/23 03:24:00;;;;;;;21.40;19.53;;;;;;;22.37;22.62;95849.66;4953717;28;102816;-46
2021/12/23 03:26:26;;;;;;;21.70;19.90;;;;;;;22.39;22.77;95849.38;4950104;28;103355;-47
2021/12/23 03:28:51;;;;;;;20.90;19.00;;;;;;;22.38;22.81;95845.91;4952457;28;103462;-46
2021/12/23 03:31:17;;;;;;;21.03;19.20;;;;;;;22.36;22.91;95850.75;4953984;28;104228;-48
2021/12/23 03:33:43;;;;;;;22.23;20.33;;;;;;;22.37;22.79;95851.53;4954994;28;102721;-46
2021/12/23 03:36:08;;;;;;;20.53;18.73;;;;;;;22.36;22.67;95848.06;4954361;28;102767;-46
2021/12/23 03:38:34;;;;;;;20.73;18.93;;;;;;;22.36;22.78;95849.94;4954624;28;103421;-46
2021/12/23 03:41:00;;;;;;;19.40;17.80;;;;;;;22.36;22.88;95861.38;4950208;28;103579;-46
2021/12/23 03:43:28;;;;;;;19.90;18.30;;;;;;;22.35;22.65;95849.16;4956120;28;102859;-47
2021/12/23 03:45:54;;;;;;;19.30;17.50;;;;;;;22.37;22.76;95848.88;4955870;28;102796;-46
2021/12/23 03:48:19;;;;;;;18.30;16.77;;;;;;;22.35;22.54;95851.03;4953187;28;102916;-47
2021/12/23 03:50:47;;;;;;;17.80;16.40;;;;;;;22.35;22.52;95848.34;4949975;28;102934;-46
2021/12/23 03:53:13;;;;;;;18.77;17.07;;;;;;;22.35;22.69;95859.00;4950088;28;103435;-47
2021/12/23 03:55:39;;;;;;;17.73;16.23;;;;;;;22.35;22.69;95846.50;4945567;28;103288;-47
2021/12/23 03:58:05;;;;;;;17.83;16.40;;;;;;;22.33;22.79;95859.25;4957281;28;102684;-46
2021/12/23 04:00:31;;;;;;;16.17;14.70;;;;;;;22.33;22.70;95851.28;4943995;28;102985;-46
2021/12/23 04:02:57;;;;;;;17.10;15.70;;;;;;;22.34;22.46;95860.06;4945967;28;102772;-46
2021/12/23 04:05:23;;;;;;;17.17;15.70;;;;;;;22.34;22.64;95860.88;4956563;28;102702;-46
2021/12/23 04:07:49;;;;;;;16.37;14.80;;;;;;;22.35;22.41;95859.81;4952662;28;102844;-47
2021/12/23 04:10:20;;;;;;;14.00;12.80;;;;;;;22.33;22.66;95859.25;4951061;28;103789;-47
2021/12/23 04:12:46;;;;;;;14.90;13.70;;;;;;;22.36;22.43;95863.25;4955934;28;102772;-47
2021/12/23 04:15:11;;;;;;;14.27;13.07;;;;;;;22.44;21.65;95868.75;4947265;28;102663;-46
2021/12/23 04:17:37;;;;;;;13.57;12.47;;;;;;;22.54;21.75;95864.41;4951057;28;103136;-46
2021/12/23 04:22:59;;;;;;;13.57;12.27;;;;;;;22.69;21.80;95867.72;4923627;28;103036;-46
2021/12/23 04:25:27;;;;;;;11.57;10.67;;;;;;;22.76;21.87;95864.72;4952158;28;102684;-47
2021/12/23 04:27:57;;;;;;;11.10;10.30;;;;;;;22.84;21.80;95873.97;4951652;28;103078;-46
2021/12/23 04:30:23;;;;;;;10.20;9.50;;;;;;;22.87;21.96;95874.22;4948187;28;102789;-46
2021/12/23 04:32:49;;;;;;;10.60;9.77;;;;;;;22.86;22.25;95877.97;4944168;28;102835;-46
2021/12/23 04:35:15;;;;;;;10.80;9.87;;;;;;;22.86;21.91;95867.31;4955340;28;103065;-47
2021/12/23 04:37:41;;;;;;;9.67;8.97;;;;;;;22.88;21.81;95878.47;4954767;28;102838;-46
2021/12/23 04:40:09;;;;;;;9.93;9.13;;;;;;;22.90;21.89;95872.84;4955285;28;102801;-46
2021/12/23 04:42:36;;;;;;;8.97;8.27;;;;;;;22.92;21.80;95873.34;4952048;28;102818;-47
2021/12/23 04:45:03;;;;;;;9.17;8.47;;;;;;;22.94;21.69;95869.31;4947014;28;103150;-47
2021/12/23 04:47:29;;;;;;;9.97;9.17;;;;;;;22.86;22.04;95866.50;4948763;28;102820;-47
2021/12/23 04:49:54;;;;;;;8.60;7.90;;;;;;;22.89;21.85;95866.72;4954950;28;103303;-47
2021/12/23 04:52:20;;;;;;;9.07;8.20;;;;;;;22.95;21.68;95865.59;4951621;28;103067;-47
2021/12/23 04:54:45;;;;;;;8.50;7.80;;;;;;;22.98;21.80;95870.34;4954973;28;103025;-47
2021/12/23 04:57:11;;;;;;;8.20;7.50;;;;;;;22.94;22.02;95869.31;4952692;28;103436;-47
2021/12/23 04:59:36;;;;;;;8.67;7.97;;;;;;;22.91;22.21;95879.75;4953271;28;103150;-47
2021/12/23 05:02:02;;;;;;;8.30;7.60;;;;;;;22.90;22.28;95872.84;4953545;28;103192;-47
2021/12/23 05:04:28;;;;;;;8.50;7.70;;;;;;;22.86;22.27;95874.50;4959882;28;102857;-47
2021/12/23 05:06:54;;;;;;;7.60;7.00;;;;;;;22.83;22.52;95875.84;4958782;28;104303;-47
2021/12/23 05:09:19;;;;;;;7.87;7.07;;;;;;;22.81;22.34;95875.28;4958519;28;104516;-47
2021/12/23 05:11:45;;;;;;;8.00;7.30;;;;;;;22.86;22.24;95872.63;4957081;28;102811;-47
2021/12/23 05:14:11;;;;;;;7.10;6.60;;;;;;;22.98;22.20;95877.53;4959196;28;103507;-47
2021/12/23 05:16:37;;;;;;;8.43;7.60;;;;;;;23.07;22.14;95879.31;4950673;28;104705;-48
2021/12/23 05:19:03;;;;;;;7.90;7.20;;;;;;;23.12;22.41;95875.78;4954243;28;103225;-48
2021/12/23 05:21:29;;;;;;;7.30;6.70;;;;;;;23.10;22.87;95878.72;4950719;28;104704;-48
2021/12/23 05:23:55;;;;;;;13.30;7.00;;;;;;;22.98;22.71;95881.00;4945061;28;102869;-48
2021/12/23 05:26:20;;;;;;;8.00;6.67;;;;;;;22.86;22.69;95879.84;4960942;28;102688;-47
2021/12/23 05:28:46;;;;;;;7.70;7.10;;;;;;;22.82;22.67;95879.59;4960662;28;103844;-47
2021/12/23 05:31:11;;;;;;;7.97;7.23;;;;;;;22.79;22.69;95880.91;4961286;28;102740;-47
2021/12/23 05:33:37;;;;;;;8.53;7.80;;;;;;;22.78;22.40;95870.53;4961754;28;103198;-47
2021/12/23 05:36:03;;;;;;;7.30;6.70;;;;;;;22.76;22.52;95872.69;4961130;28;103431;-47
2021/12/23 05:38:29;;;;;;;8.00;7.30;;;;;;;22.75;22.36;95877.22;4959988;28;103698;-47
2021/12/23 05:40:54;;;;;;;7.13;6.43;;;;;;;22.76;22.02;95873.50;4960103;28;102711;-46
2021/12/23 05:43:21;;;;;;;7.77;7.17;;;;;;;22.76;22.09;95875.38;4961335;28;102647;-46
2021/12/23 05:45:46;;;;;;;7.70;7.00;;;;;;;22.75;21.94;95871.13;4961082;28;102577;-46
2021/12/23 05:48:12;;;;;;;7.10;6.50;;;;;;;22.74;21.83;95875.66;4961083;28;102709;-46
2021/12/23 05:50:37;;;;;;;7.17;6.57;;;;;;;22.75;22.08;95879.09;4960165;28;102723;-46
2021/12/23 05:53:03;;;;;;;7.97;7.37;;;;;;;22.74;21.67;95885.50;4961597;28;102737;-47
2021/12/23 05:55:28;;;;;;;7.83;7.23;;;;;;;22.73;21.29;95876.72;4961280;28;102758;-47
2021/12/23 05:57:54;;;;;;;8.23;7.53;;;;;;;22.73;21.66;95874.06;4961542;28;103334;-47
2021/12/23 06:00:24;;;;;;;8.73;7.93;;;;;;;22.72;21.67;95882.34;4959729;28;102933;-47
2021/12/23 06:02:51;;;;;;;7.50;6.90;;;;;;;22.73;21.33;95878.59;4959846;28;102695;-47
2021/12/23 06:05:17;;;;;;;9.10;8.30;;;;;;;22.72;21.20;95877.81;4959987;28;103149;-47
2021/12/23 06:07:43;;;;;;;8.20;7.50;;;;;;;22.72;21.18;95874.34;4957965;28;105621;-47
2021/12/23 06:10:09;;;;;;;8.43;7.73;;;;;;;22.73;20.90;95883.94;4960717;28;102681;-47
2021/12/23 06:12:35;;;;;;;8.20;7.50;;;;;;;22.73;21.51;95874.06;4959936;28;102824;-46
2021/12/23 06:15:01;;;;;;;7.57;6.87;;;;;;;22.73;21.03;95883.94;4960531;28;103557;-47
2021/12/23 06:17:27;;;;;;;8.27;7.57;;;;;;;22.73;20.93;95882.06;4961288;28;103224;-47
2021/12/23 06:19:53;;;;;;;8.53;7.80;;;;;;;22.74;20.92;95886.31;4960816;28;102869;-47
2021/12/23 06:22:19;;;;;;;8.37;7.67;;;;;;;22.73;20.83;95889.25;4960590;28;102800;-46
2021/12/23 06:24:47;;;;;;;8.60;7.90;;;;;;;22.74;20.65;95888.97;4959880;28;102923;-47
2021/12/23 06:27:14;;;;;;;8.20;7.17;;;;;;;22.75;20.58;95892.44;4959942;28;103696;-47
2021/12/23 06:29:39;;;;;;;7.33;6.63;;;;;;;22.75;20.37;95892.44;4960190;28;103030;-46
2021/12/23 06:32:05;;;;;;;8.20;7.40;;;;;;;22.75;20.66;95889.75;4960754;28;103302;-46
2021/12/23 06:34:31;;;;;;;8.77;8.07;;;;;;;22.76;20.93;95892.13;4960142;28;103470;-47
2021/12/23 06:36:57;;;;;;;8.23;7.53;;;;;;;22.76;20.84;95888.69;4961218;28;103856;-47
2021/12/23 06:39:22;;;;;;;7.90;7.30;;;;;;;22.75;20.49;95890.56;4959720;28;102680;-47
2021/12/23 06:41:48;;;;;;;9.27;8.47;;;;;;;22.76;20.39;95894.81;4960369;28;102770;-47
2021/12/23 06:44:13;;;;;;;7.93;7.33;;;;;;;22.77;20.58;95887.59;4958964;28;102775;-47
2021/12/23 06:46:39;;;;;;;8.87;8.07;;;;;;;22.79;20.19;95893.44;4960558;28;103614;-47
2021/12/23 06:49:04;;;;;;;9.07;8.33;;;;;;;22.78;20.30;95883.88;4960822;28;103237;-47
2021/12/23 06:51:30;;;;;;;8.60;7.80;;;;;;;22.80;20.22;95884.38;4942906;28;103003;-47
2021/12/23 06:54:01;;;;;;;8.70;7.77;;;;;;;22.79;20.31;95883.56;4959049;28;104501;-47
2021/12/23 06:56:26;;;;;;;8.50;7.80;;;;;;;22.79;20.16;95883.56;4959685;28;103365;-47
2021/12/23 06:58:52;;;;;;;8.40;7.70;;;;;;;22.82;20.19;95882.25;4960205;28;103246;-47
2021/12/23 07:01:20;;;;;;;8.37;7.77;;;;;;;23.15;19.58;95885.06;4942383;28;102853;-47
2021/12/23 07:06:23;;;;;;;9.40;8.60;;;;;;;24.01;19.13;95879.38;4957128;28;103284;-47
2021/12/23 07:08:49;;;;;;;9.53;8.83;;;;;;;24.14;19.18;95882.38;4959438;28;102878;-47
2021/12/23 07:11:15;;;;;;;9.90;9.00;;;;;;;24.40;18.80;95886.25;4958797;28;102712;-47
2021/12/23 07:13:40;;;;;;;9.40;8.60;;;;;;;24.44;18.88;95881.91;4959377;28;102942;-47
2021/12/23 07:16:06;;;;;;;10.13;9.33;;;;;;;24.56;18.76;95895.59;4959459;28;103381;-47
2021/12/23 07:18:32;;;;;;;9.63;8.83;;;;;;;24.42;18.49;95885.97;4954275;28;102752;-47
2021/12/23 07:20:57;;;;;;;9.63;8.83;;;;;;;24.51;19.04;95886.88;4940567;28;102970;-47
2021/12/23 07:23:23;;;;;;;10.53;9.63;;;;;;;24.29;19.34;95882.97;4938293;28;103652;-47
2021/12/23 07:25:49;;;;;;;9.70;8.80;;;;;;;24.18;19.31;95889.50;4940028;28;102847;-47
2021/12/23 07:28:14;;;;;;;9.30;8.47;;;;;;;24.15;19.20;95894.66;4920621;28;103152;-47
2021/12/23 07:30:40;;;;;;;10.47;9.60;;;;;;;24.12;19.43;95901.38;4926120;28;102728;-47
2021/12/23 07:33:05;;;;;;;10.00;9.17;;;;;;;24.11;19.00;95907.78;4929344;28;102764;-47
2021/12/23 07:35:31;;;;;;;10.40;9.50;;;;;;;24.10;18.94;95906.22;4940306;28;103121;-47
2021/12/23 07:38:00;;;;;;;10.10;9.10;;;;;;;24.09;18.87;95909.16;4939743;28;103003;-47
2021/12/23 07:40:27;;;;;;;10.70;9.80;;;;;;;24.07;19.53;95906.78;4937797;28;102868;-47
2021/12/23 07:43:09;;;;;;;10.57;9.57;;;;;;;24.08;19.54;95908.38;4938965;28;102966;-47
2021/12/23 07:45:36;;;;;;;10.13;9.23;;;;;;;24.07;19.38;95912.13;4939769;28;103311;-47
2021/12/23 07:48:02;;;;;;;10.47;9.67;;;;;;;24.07;19.44;95906.00;4939839;28;102915;-47
2021/12/23 07:50:28;;;;;;;10.60;9.70;;;;;;;24.05;18.95;95903.63;4939455;28;102533;-47
2021/12/23 07:52:53;;;;;;;10.60;9.70;;;;;;;24.04;19.50;95907.38;4939536;28;102675;-47
2021/12/23 07:55:20;;;;;;;11.20;10.30;;;;;;;24.01;19.51;95905.28;4939100;28;103914;-47
2021/12/23 07:57:47;;;;;;;10.50;9.60;;;;;;;24.03;19.44;95902.34;4939642;28;102813;-47
2021/12/23 08:00:13;;;;;;;10.63;9.70;;;;;;;24.02;19.83;95909.56;4924884;28;102997;-47
2021/12/23 08:02:39;;;;;;;10.10;9.13;;;;;;;24.01;19.39;95902.59;4919836;28;102988;-47
2021/12/23 08:05:05;;;;;;;16.70;15.10;;;;;;;23.82;20.49;95899.94;4938363;28;103435;-47
2021/12/23 08:07:30;;;;;;;15.73;14.43;;;;;;;23.73;21.07;95907.03;4934180;28;104158;-47
2021/12/23 08:09:56;;;;;;;16.17;14.80;;;;;;;23.65;21.21;95908.44;4937455;28;102868;-47
2021/12/23 08:12:21;;;;;;;16.97;15.47;;;;;;;23.62;21.78;95910.91;4941393;28;103066;-47
2021/12/23 08:14:47;;;;;;;17.23;15.70;;;;;;;23.59;22.02;95906.94;4925956;28;103494;-47
2021/12/23 08:17:12;;;;;;;18.73;17.03;;;;;;;23.60;22.48;95900.53;4937310;28;102927;-47
2021/12/23 08:19:38;;;;;;;16.73;15.33;;;;;;;23.63;22.79;95899.16;4940601;28;103098;-48
2021/12/23 08:22:03;;;;;;;17.03;15.60;;;;;;;23.61;23.14;95896.78;4933222;28;102981;-47
2021/12/23 08:24:29;;;;;;;17.67;15.87;;;;;;;23.60;22.82;95902.41;4933786;28;103673;-47
2021/12/23 08:26:55;;;;;;;16.50;15.10;;;;;;;23.61;22.81;95898.66;4938390;28;102883;-47
2021/12/23 08:29:22;;;;;;;17.90;16.37;;;;;;;23.65;23.10;95889.78;4934151;28;103499;-47
2021/12/23 08:31:58;;;;;;;15.97;14.70;;;;;;;23.61;23.16;95894.09;4932793;28;103623;-47
2021/12/23 08:34:25;;;;;;;16.50;15.10;;;;;;;23.58;23.05;95892.03;4940208;28;102984;-47
2021/12/23 08:36:52;;;;;;;16.17;14.73;;;;;;;23.54;22.93;95885.66;4940959;28;102486;-47
2021/12/23 08:39:19;;;;;;;17.70;16.10;;;;;;;23.53;23.17;95892.06;4940132;28;104269;-47
2021/12/23 08:41:45;;;;;;;16.57;14.97;;;;;;;23.51;23.11;95883.53;4939363;28;103273;-47
2021/12/23 08:44:10;;;;;;;19.23;17.53;;;;;;;23.46;22.97;95888.16;4944615;28;103516;-46
2021/12/23 08:46:36;;;;;;;17.40;15.80;;;;;;;23.40;22.60;95877.56;4960586;28;103048;-47
2021/12/23 08:49:04;;;;;;;17.23;15.73;;;;;;;23.39;22.40;95881.31;4949185;28;102713;-46
2021/12/23 08:51:33;;;;;;;16.67;14.90;;;;;;;23.41;22.51;95883.69;4952835;28;102848;-46
2021/12/23 08:53:59;;;;;;;16.13;14.73;;;;;;;23.42;22.78;95883.41;4960323;28;102810;-47
2021/12/23 08:56:24;;;;;;;16.60;15.07;;;;;;;23.38;23.15;95873.59;4959470;28;103846;-46
2021/12/23 08:58:50;;;;;;;17.10;15.50;;;;;;;23.36;23.10;95867.75;4953237;28;102779;-46
2021/12/23 09:01:16;;;;;;;17.07;15.33;;;;;;;23.35;23.38;95868.84;4960371;28;102805;-46
2021/12/23 09:03:42;;;;;;;21.23;19.43;;;;;;;23.32;23.58;95864.06;4959774;28;102722;-46
2021/12/23 09:06:08;;;;;;;19.03;17.30;;;;;;;23.20;22.39;95863.69;4954276;28;103144;-47
2021/12/23 09:08:33;;;;;;;17.70;15.93;;;;;;;23.27;22.31;95851.59;4959057;28;102803;-46
2021/12/23 09:11:00;;;;;;;17.00;15.50;;;;;;;23.30;22.89;95851.00;4958545;28;103324;-46
2021/12/23 09:13:26;;;;;;;19.20;17.50;;;;;;;23.31;22.66;95843.81;4960554;28;103676;-46
2021/12/23 09:15:52;;;;;;;18.37;16.73;;;;;;;23.32;22.89;95837.41;4959941;28;102695;-46
2021/12/23 09:18:19;;;;;;;18.90;17.20;;;;;;;23.34;22.73;95835.22;4958408;28;102779;-46
2021/12/23 09:20:46;;;;;;;19.47;17.67;;;;;;;23.32;22.79;95832.84;4951284;28;103233;-46
2021/12/23 09:23:12;;;;;;;20.37;18.33;;;;;;;23.35;23.13;95831.50;4959060;28;102633;-47
2021/12/23 09:25:38;;;;;;;18.70;17.13;;;;;;;23.37;23.21;95824.00;4959135;28;102758;-46
2021/12/23 09:28:26;;;;;;;18.57;16.97;;;;;;;23.36;22.99;95822.44;4956890;28;103481;-46
2021/12/23 09:33:37;;;;;;;19.13;17.40;;;;;;;23.42;23.04;95816.72;4958647;28;103171;-46
2021/12/23 09:36:03;;;;;;;19.83;18.13;;;;;;;23.45;23.02;95810.00;4959886;28;102806;-46
2021/12/23 09:38:28;;;;;;;20.20;18.50;;;;;;;23.48;22.92;95804.09;4961756;28;102799;-47
2021/12/23 09:41:02;;;;;;;23.77;21.60;;;;;;;23.56;23.49;95800.00;4954047;28;103563;-46
2021/12/23 09:43:30;;;;;;;21.07;19.27;;;;;;;23.61;23.41;95803.41;4952429;28;103536;-46
2021/12/23 09:45:57;;;;;;;19.87;18.17;;;;;;;23.66;23.94;95805.19;4957987;28;102831;-46
2021/12/23 09:48:23;;;;;;;20.77;18.87;;;;;;;23.68;23.61;95806.53;4951339;28;102741;-46
2021/12/23 09:50:50;;;;;;;18.87;17.27;;;;;;;23.70;23.17;95807.00;4958171;28;103217;-46
2021/12/23 09:53:21;;;;;;;22.03;20.10;;;;;;;23.67;23.42;95794.22;4958086;28;102911;-46
2021/12/23 09:55:47;;;;;;;21.43;19.57;;;;;;;23.64;23.24;95788.69;4957885;28;102662;-46
2021/12/23 09:58:12;;;;;;;19.47;17.77;;;;;;;23.62;23.15;95783.66;4958479;28;102682;-46
2021/12/23 10:00:45;;;;;;;23.43;20.97;;;;;;;23.60;23.48;95780.47;4950814;28;103378;-46
2021/12/23 10:05:42;;;;;;;26.20;24.00;;;;;;;23.63;23.66;95763.88;4916977;28;103250;-73
2021/12/23 10:08:11;;;;;;;28.43;25.80;;;;;;;23.59;23.59;95762.91;4906097;28;102706;-73
2021/12/23 10:10:45;;;;;;;27.10;24.70;;;;;;;23.60;23.37;95753.81;4901854;28;104199;-72
2021/12/23 10:38:25;;;;;;;26.63;24.20;;;;;;;23.53;24.00;95720.56;4916999;28;104161;-73
2021/12/23 10:40:53;;;;;;;26.30;23.93;;;;;;;23.54;23.95;95724.81;4905979;28;102756;-73
2021/12/23 10:43:31;;;;;;;26.80;24.30;;;;;;;23.49;23.95;95725.66;4929183;28;103347;-73
2021/12/23 10:46:04;;;;;;;27.37;24.73;;;;;;;23.45;23.94;95714.00;4909563;28;103580;-73
2021/12/23 10:48:33;;;;;;;27.20;24.57;;;;;;;23.45;23.82;95718.56;4921854;28;103278;-72
2021/12/23 10:51:08;;;;;;;28.27;25.77;;;;;;;23.42;24.29;95715.38;4920240;28;102717;-72
2021/12/23 10:59:22;;;;;;;30.23;27.47;;;;;;;23.39;24.22;95707.97;4919404;28;102895;-74
2021/12/23 11:02:27;;;;;;;31.47;28.83;;;;;;;23.39;24.14;95689.31;4927556;28;103863;-74
2021/12/23 11:05:44;;;;;;;31.00;28.17;;;;;;;23.39;23.89;95683.19;4877444;28;104708;-72
2021/12/23 11:08:15;;;;;;;35.53;32.30;;;;;;;23.37;24.19;95690.69;4933819;28;105035;-73
2021/12/23 11:27:48;;;;;;;44.30;40.30;;;;;;;23.30;24.03;95666.25;4939922;28;102836;-73
2021/12/23 11:41:30;;;;;;;48.90;44.50;;;;;;;23.24;23.50;95636.22;4932270;28;102764;-73
2021/12/23 11:43:59;;;;;;;46.90;42.60;;;;;;;23.26;23.75;95635.94;4940770;28;102785;-73
2021/12/23 11:46:34;;;;;;;45.63;41.60;;;;;;;23.24;23.26;95627.44;4940690;28;102740;-74
2021/12/23 11:49:07;;;;;;;43.60;39.67;;;;;;;23.22;23.70;95626.94;4935222;28;103125;-73
2021/12/23 11:51:45;;;;;;;44.17;40.07;;;;;;;23.24;23.54;95616.78;4937884;28;103628;-73
2021/12/23 11:54:14;;;;;;;44.87;40.70;;;;;;;23.26;23.42;95619.94;4934881;28;102816;-72
2021/12/23 11:57:01;;;;;;;44.40;40.30;;;;;;;23.25;23.69;95616.47;4937098;28;104704;-73
2021/12/23 11:59:27;;;;;;;44.73;40.60;;;;;;;23.25;23.46;95613.03;4924096;28;105416;-73
2021/12/23 12:01:55;;;;;;;42.30;38.50;;;;;;;23.27;23.97;95611.63;4934083;28;104573;-73
2021/12/23 12:04:22;;;;;;;43.37;39.40;;;;;;;23.23;23.93;95604.53;4933766;28;103866;-73
2021/12/23 12:06:50;;;;;;;42.93;38.97;;;;;;;23.25;23.64;95605.81;4936473;28;102792;-72
2021/12/23 12:09:28;;;;;;;42.07;38.00;;;;;;;23.24;23.72;95603.44;4937174;28;104704;-72
2021/12/23 12:11:56;;;;;;;38.87;35.30;;;;;;;23.26;24.24;95604.72;4937241;28;103492;-72
2021/12/23 12:14:40;;;;;;;42.10;38.10;;;;;;;23.23;23.88;95599.19;4924686;28;103475;-71
2021/12/23 12:17:33;;;;;;;40.00;36.10;;;;;;;23.23;23.87;95599.97;4925684;28;102831;-73
2021/12/23 12:20:21;;;;;;;40.60;36.70;;;;;;;23.21;24.93;95588.03;4929102;28;104013;-73
2021/12/23 12:23:07;;;;;;;35.67;32.40;;;;;;;23.24;24.40;95598.09;4909042;28;105546;-70
2021/12/23 12:25:38;;;;;;;37.63;34.20;;;;;;;23.24;24.61;95590.91;4934059;28;103133;-71
2021/12/23 12:28:03;;;;;;;36.67;33.17;;;;;;;23.23;24.90;95597.31;4937772;28;102729;-71
2021/12/23 12:30:42;;;;;;;36.03;32.40;;;;;;;23.22;25.05;95597.63;4937948;28;104328;-71
2021/12/23 12:33:23;;;;;;;37.53;34.17;;;;;;;23.24;25.02;95595.44;4936945;28;103545;-71
2021/12/23 12:36:06;;;;;;;33.40;30.50;;;;;;;23.24;24.61;95595.44;4931789;28;102745;-70
2021/12/23 12:38:47;;;;;;;35.97;32.70;;;;;;;23.24;24.59;95590.91;4922000;28;102765;-70